Terminal Aerodrome Forecast
Issued by NWS

Home | Current Version | Previous Version | Text Only | Print | Product List | Glossary On
Versions: 1 2 3 4 5 6 7 8 9 10 11 12 13
000
FTUS45 KLKN 251740
TAFTPH
TAF
KTPH 251740Z 2518/2618 35008KT P6SM SKC
     FM252000 28010G15KT P6SM FEW100 FEW250
     FM260200 36009KT P6SM FEW250=

USA.gov is the U.S. government's official web portal to all federal, state and local government web resources and services.